Time;durP1;ratioP1;P1;durP2;ratioP2;P2;SDS_P1;SDS_P2;PMS_P1;PMS_P2;Temp;Humidity;BMP_temperature;BMP_pressure;BME280_temperature;BME280_humidity;BME280_pressure;Samples;Min_cycle;Max_cycle;Signal;HPM_P1;HPM_P2
2023/04/19 00:01:30;;;;;;;35.30;26.10;;;;;;;10.15;81.79;99047.71;225701;1279;24300;-78
2023/04/19 00:06:33;;;;;;;34.30;26.40;;;;;;;10.13;82.17;99040.60;225577;1278;25246;-77
2023/04/19 00:11:35;;;;;;;35.50;25.70;;;;;;;10.09;82.26;99032.95;225825;1278;22596;-77
2023/04/19 00:16:37;;;;;;;33.40;26.70;;;;;;;10.05;82.28;99030.79;225535;1278;22589;-77
2023/04/19 00:21:39;;;;;;;28.50;23.90;;;;;;;10.02;82.44;99021.50;225767;1279;22541;-78
2023/04/19 00:26:41;;;;;;;33.80;24.00;;;;;;;10.00;82.26;99019.07;225579;1278;22604;-78
2023/04/19 00:31:43;;;;;;;28.30;21.50;;;;;;;9.99;82.50;99017.86;225711;1277;22557;-79
2023/04/19 00:36:44;;;;;;;29.10;21.30;;;;;;;9.97;82.44;99014.22;225751;1278;22523;-78
2023/04/19 00:41:47;;;;;;;29.00;20.90;;;;;;;9.95;82.28;99005.34;225855;1278;23044;-78
2023/04/19 00:46:50;;;;;;;22.80;19.90;;;;;;;9.92;82.33;99001.77;225790;1276;22531;-78
2023/04/19 00:51:53;;;;;;;24.60;20.20;;;;;;;9.89;82.29;98992.98;225809;1275;22523;-79
2023/04/19 00:56:55;;;;;;;23.60;19.20;;;;;;;9.86;82.15;98986.96;225560;1278;22662;-78
2023/04/19 01:01:58;;;;;;;24.20;19.40;;;;;;;9.84;82.29;98983.19;225557;1278;22572;-79
2023/04/19 01:07:04;;;;;;;22.90;17.90;;;;;;;9.82;81.94;98975.84;225601;1279;22559;-78
2023/04/19 01:12:06;;;;;;;22.30;17.40;;;;;;;9.80;81.86;98974.30;225700;1279;22523;-78
2023/04/19 01:17:09;;;;;;;25.20;17.40;;;;;;;9.78;81.87;98965.89;225629;1278;22531;-78
2023/04/19 01:22:18;;;;;;;22.60;17.60;;;;;;;9.76;82.20;98962.48;225765;1279;22536;-78
2023/04/19 01:27:20;;;;;;;23.30;18.50;;;;;;;9.72;81.95;98952.33;225810;1279;22541;-79
2023/04/19 01:32:24;;;;;;;23.40;18.60;;;;;;;9.70;81.70;98951.41;225774;1279;22517;-77
2023/04/19 01:37:26;;;;;;;22.30;18.30;;;;;;;9.66;81.76;98943.32;225777;1278;22528;-77
2023/04/19 01:42:28;;;;;;;20.70;17.00;;;;;;;9.63;82.06;98940.73;225562;1279;22531;-78
2023/04/19 01:47:30;;;;;;;22.60;16.80;;;;;;;9.60;82.13;98941.62;225809;1278;24119;-78
2023/04/19 01:52:32;;;;;;;20.90;16.90;;;;;;;9.57;81.99;98937.57;225790;1276;22539;-77
2023/04/19 01:57:34;;;;;;;20.80;16.30;;;;;;;9.54;82.04;98930.70;225549;1279;22540;-78
2023/04/19 02:02:37;;;;;;;21.30;16.30;;;;;;;9.52;82.06;98926.83;225783;1278;22630;-78
2023/04/19 02:07:39;;;;;;;19.30;16.60;;;;;;;9.51;82.12;98927.30;225511;1279;22535;-79
2023/04/19 02:12:42;;;;;;;24.20;17.70;;;;;;;9.51;82.07;98920.17;225518;1262;22538;-78
2023/04/19 02:17:46;;;;;;;20.20;15.70;;;;;;;9.49;82.31;98912.06;225762;1278;22536;-78
2023/04/19 02:22:48;;;;;;;21.60;16.20;;;;;;;9.47;82.20;98908.89;225589;1279;22531;-78
2023/04/19 02:27:50;;;;;;;20.30;16.00;;;;;;;9.42;82.14;98902.98;225626;1279;25138;-78
2023/04/19 02:32:53;;;;;;;20.50;15.90;;;;;;;9.33;82.15;98899.64;225743;1279;22542;-78
2023/04/19 02:37:56;;;;;;;19.20;15.90;;;;;;;9.23;82.45;98885.23;225784;1279;22591;-78
2023/04/19 02:43:00;;;;;;;21.60;17.10;;;;;;;9.16;82.61;98885.20;225586;1279;22549;-77
2023/04/19 02:48:02;;;;;;;23.30;17.50;;;;;;;9.09;82.93;98882.96;225543;1279;22558;-78
2023/04/19 02:53:04;;;;;;;20.90;17.40;;;;;;;9.03;82.82;98878.64;225722;1279;22513;-79
2023/04/19 02:58:07;;;;;;;22.40;18.50;;;;;;;9.00;82.92;98872.02;225617;1279;24297;-79
2023/04/19 03:03:14;;;;;;;23.10;17.10;;;;;;;8.98;83.39;98870.77;225875;1276;22646;-78
2023/04/19 03:08:17;;;;;;;19.60;16.20;;;;;;;8.97;83.18;98861.09;225789;1279;22528;-79
2023/04/19 03:13:20;;;;;;;23.10;17.30;;;;;;;8.94;83.11;98850.46;225850;1279;22569;-77
2023/04/19 03:18:22;;;;;;;22.00;17.20;;;;;;;8.91;83.10;98841.70;225640;1275;22540;-77
2023/04/19 03:23:26;;;;;;;20.60;17.10;;;;;;;8.89;83.32;98838.46;225596;1279;22534;-77
2023/04/19 03:28:28;;;;;;;19.90;16.30;;;;;;;8.87;82.98;98829.95;225603;1278;22532;-77
2023/04/19 03:33:50;;;;;;;20.50;16.60;;;;;;;8.85;83.42;98822.79;225641;1279;24296;-77
2023/04/19 03:38:54;;;;;;;20.90;17.60;;;;;;;8.82;83.03;98828.52;225634;1278;22549;-78
2023/04/19 03:43:57;;;;;;;21.30;17.20;;;;;;;8.80;83.42;98821.22;225739;1277;22571;-77
2023/04/19 03:48:59;;;;;;;22.70;18.90;;;;;;;8.80;83.36;98818.59;225615;1279;22521;-78
2023/04/19 03:54:02;;;;;;;25.20;18.50;;;;;;;8.79;83.59;98817.36;225823;1277;22631;-76
2023/04/19 03:59:04;;;;;;;23.60;19.40;;;;;;;8.80;83.30;98818.88;225586;1279;22676;-78
2023/04/19 04:04:08;;;;;;;24.60;19.50;;;;;;;8.80;83.54;98812.80;225584;1279;22527;-78
2023/04/19 04:09:11;;;;;;;27.50;20.80;;;;;;;8.78;83.86;98811.58;225601;1274;22524;-77
2023/04/19 04:14:14;;;;;;;26.70;19.90;;;;;;;8.76;83.69;98821.48;225696;1279;22528;-78
2023/04/19 04:19:17;;;;;;;23.50;19.60;;;;;;;8.72;83.80;98823.50;225579;1279;22604;-78
2023/04/19 04:24:21;;;;;;;20.40;16.60;;;;;;;8.69;84.51;98826.67;225813;1273;22524;-78
2023/04/19 04:29:42;;;;;;;24.00;18.80;;;;;;;8.63;84.26;98825.94;225854;1276;22524;-77
2023/04/19 04:34:46;;;;;;;18.80;14.70;;;;;;;8.58;84.20;98823.10;225617;1279;22530;-78
2023/04/19 04:39:56;;;;;;;14.50;11.00;;;;;;;8.50;84.01;98827.60;225871;1279;22525;-78
2023/04/19 04:45:00;;;;;;;15.90;11.70;;;;;;;8.40;84.06;98831.05;225847;1279;22646;-78
2023/04/19 04:50:04;;;;;;;14.10;11.80;;;;;;;8.33;83.82;98832.48;225347;1279;22545;-78
2023/04/19 04:55:08;;;;;;;15.20;12.90;;;;;;;8.30;83.89;98830.02;225475;1277;22528;-78
2023/04/19 05:00:14;;;;;;;15.50;13.60;;;;;;;8.31;83.97;98831.50;225618;1276;22527;-78
2023/04/19 05:05:25;;;;;;;17.80;14.50;;;;;;;8.33;84.42;98826.25;225831;1279;23269;-77
2023/04/19 05:10:27;;;;;;;16.50;14.40;;;;;;;8.36;84.20;98823.21;225712;1279;22541;-77
2023/04/19 05:15:29;;;;;;;18.40;15.00;;;;;;;8.39;84.05;98817.25;225780;1275;25976;-78
2023/04/19 05:20:35;;;;;;;19.00;15.70;;;;;;;8.42;84.37;98813.45;225608;1279;22558;-78
2023/04/19 05:25:46;;;;;;;20.10;17.00;;;;;;;8.45;84.42;98810.09;225837;1276;22599;-79
2023/04/19 05:30:49;;;;;;;18.40;16.10;;;;;;;8.50;84.62;98809.56;225852;1276;22554;-77
2023/04/19 05:35:51;;;;;;;20.50;16.10;;;;;;;8.52;84.70;98807.19;225701;1269;22542;-77
2023/04/19 05:40:54;;;;;;;18.80;16.80;;;;;;;8.53;84.37;98808.10;225419;1276;22528;-75
2023/04/19 05:45:57;;;;;;;19.80;16.90;;;;;;;8.53;84.71;98805.37;225372;1279;22542;-75
2023/04/19 05:50:59;;;;;;;16.90;15.20;;;;;;;8.49;84.71;98808.29;225246;1279;24285;-81
2023/04/19 05:56:20;;;;;;;14.40;13.00;;;;;;;8.38;84.59;98804.77;225218;1257;22563;-77
2023/04/19 06:01:23;;;;;;;13.90;12.00;;;;;;;8.26;84.15;98809.48;225007;1258;22554;-76
2023/04/19 06:06:26;;;;;;;11.30;10.20;;;;;;;8.16;84.01;98807.36;224939;1258;23250;-79
2023/04/19 06:11:29;;;;;;;12.60;10.60;;;;;;;8.11;83.89;98810.90;225006;1257;22546;-76
2023/04/19 06:16:43;;;;;;;10.40;9.40;;;;;;;8.10;84.10;98813.91;224874;1259;139654;-75
2023/04/19 06:21:46;;;;;;;9.90;8.90;;;;;;;8.07;83.24;98822.92;224984;1256;138865;-77
2023/04/19 06:26:48;;;;;;;10.20;9.10;;;;;;;8.07;83.07;98820.02;225130;1264;22524;-77
2023/04/19 06:31:50;;;;;;;10.30;9.00;;;;;;;8.13;82.87;98824.38;225270;1256;22619;-77
2023/04/19 06:36:52;;;;;;;9.30;8.30;;;;;;;8.21;82.75;98824.27;225080;1265;138557;-78
2023/04/19 06:41:54;;;;;;;8.60;7.50;;;;;;;8.25;82.12;98827.48;225029;1257;138313;-78
2023/04/19 06:46:57;;;;;;;8.60;7.70;;;;;;;8.27;82.04;98829.56;225069;1276;138525;-77
2023/04/19 06:51:59;;;;;;;10.20;8.70;;;;;;;8.38;82.08;98825.30;225083;1263;138398;-77
2023/04/19 06:57:01;;;;;;;8.90;7.80;;;;;;;8.58;81.80;98824.99;225018;1260;138534;-76
2023/04/19 07:02:03;;;;;;;10.30;8.00;;;;;;;8.71;81.43;98825.02;224889;1256;26326;-76
2023/04/19 07:07:05;;;;;;;8.40;7.60;;;;;;;8.80;81.08;98822.77;225135;1272;139273;-76
2023/04/19 07:12:08;;;;;;;7.10;5.70;;;;;;;8.88;81.12;98832.77;224980;1269;138706;-77
2023/04/19 07:17:10;;;;;;;7.90;7.20;;;;;;;8.92;80.24;98832.73;224949;1262;138490;-77
2023/04/19 07:22:12;;;;;;;7.40;6.60;;;;;;;8.88;80.11;98831.34;224894;1256;138559;-77
2023/04/19 07:27:17;;;;;;;7.50;5.80;;;;;;;8.79;80.24;98833.90;225009;1278;138475;-77
2023/04/19 07:32:19;;;;;;;6.10;5.50;;;;;;;8.69;79.94;98833.48;225209;1258;22533;-77
2023/04/19 07:37:22;;;;;;;6.50;5.70;;;;;;;8.57;80.58;98833.14;225164;1266;138275;-77
2023/04/19 07:42:24;;;;;;;5.60;5.10;;;;;;;8.50;80.27;98841.69;225159;1260;138475;-77
2023/04/19 07:47:27;;;;;;;6.50;5.80;;;;;;;8.46;80.28;98846.11;225061;1263;138414;-76
2023/04/19 07:52:29;;;;;;;7.50;6.70;;;;;;;8.46;80.88;98847.50;225160;1269;138330;-77
2023/04/19 07:57:31;;;;;;;8.60;7.50;;;;;;;8.55;81.37;98844.14;225326;1257;138440;-80
2023/04/19 08:02:33;;;;;;;9.80;8.40;;;;;;;8.67;80.97;98845.74;225179;1265;22524;-80
2023/04/19 08:07:35;;;;;;;12.30;10.90;;;;;;;8.71;80.72;98841.77;225123;1275;140378;-78
2023/04/19 08:12:38;;;;;;;17.00;12.80;;;;;;;8.64;80.53;98842.14;225320;1273;138654;-76
2023/04/19 08:17:58;;;;;;;13.90;12.30;;;;;;;8.56;80.74;98844.14;225676;1278;138999;-76
2023/04/19 08:23:00;;;;;;;18.50;14.00;;;;;;;8.44;80.58;98844.95;225301;1266;138691;-77
2023/04/19 08:28:19;;;;;;;17.90;14.30;;;;;;;8.34;80.42;98843.71;225304;1269;138622;-75
2023/04/19 08:33:21;;;;;;;20.90;16.60;;;;;;;8.27;80.43;98838.95;225360;1273;139479;-75
2023/04/19 08:38:23;;;;;;;21.60;17.60;;;;;;;8.17;80.34;98840.52;225525;1256;22532;-76
2023/04/19 08:43:32;;;;;;;24.30;18.00;;;;;;;7.98;80.60;98838.42;225265;1275;138619;-76
2023/04/19 08:48:35;;;;;;;21.30;16.70;;;;;;;7.84;80.77;98845.16;224953;1268;138696;-75
2023/04/19 08:53:38;;;;;;;20.50;16.30;;;;;;;7.71;80.76;98848.23;225278;1256;139719;-77
2023/04/19 08:58:40;;;;;;;24.10;17.80;;;;;;;7.59;80.96;98850.21;225493;1256;138800;-77
2023/04/19 09:04:07;;;;;;;20.00;16.40;;;;;;;7.53;81.11;98845.83;225150;1260;138720;-77
2023/04/19 09:09:24;;;;;;;18.00;14.40;;;;;;;7.45;80.75;98845.05;225276;1275;139072;-76
2023/04/19 09:14:29;;;;;;;18.80;15.20;;;;;;;7.40;81.15;98844.61;225255;1258;23444;-77
2023/04/19 09:19:46;;;;;;;24.00;18.20;;;;;;;7.39;80.96;98846.45;225514;1275;138439;-77
2023/04/19 09:24:48;;;;;;;25.60;17.30;;;;;;;7.35;80.87;98844.77;225260;1269;139168;-77
2023/04/19 09:29:55;;;;;;;21.20;17.80;;;;;;;7.28;81.18;98845.37;224930;1265;138751;-77
2023/04/19 09:34:59;;;;;;;20.30;16.30;;;;;;;7.22;81.07;98846.95;224900;1262;137784;-76
2023/04/19 09:40:21;;;;;;;19.00;15.80;;;;;;;7.14;81.36;98843.89;224997;1260;138688;-78
2023/04/19 09:45:23;;;;;;;18.00;14.30;;;;;;;7.16;81.28;98839.84;224737;1275;138965;-80
2023/04/19 09:50:28;;;;;;;18.60;15.60;;;;;;;7.28;81.32;98845.06;224896;1266;24308;-80
2023/04/19 09:55:34;;;;;;;19.20;16.20;;;;;;;7.43;81.36;98844.59;224731;1265;138639;-79
2023/04/19 10:00:55;;;;;;;20.90;17.90;;;;;;;7.66;81.16;98849.33;224553;1274;138650;-81
2023/04/19 10:06:17;;;;;;;23.30;19.60;;;;;;;7.76;81.15;98843.48;224522;1272;138542;-79
2023/04/19 10:11:26;;;;;;;25.40;22.30;;;;;;;7.77;80.81;98848.73;225310;1257;139561;-80
2023/04/19 10:16:29;;;;;;;25.30;21.80;;;;;;;7.61;80.54;98846.52;224968;1276;138706;-80
2023/04/19 10:21:32;;;;;;;26.80;21.80;;;;;;;7.48;81.20;98846.70;224967;1272;138943;-81
2023/04/19 10:27:11;;;;;;;27.80;22.00;;;;;;;7.41;81.17;98843.55;224682;1259;196305;-80
2023/04/19 10:32:18;;;;;;;26.70;21.90;;;;;;;7.38;80.71;98845.83;224948;1272;22530;-80
2023/04/19 10:37:23;;;;;;;27.60;21.80;;;;;;;7.28;81.39;98849.57;224835;1263;138370;-77
2023/04/19 10:43:04;;;;;;;22.60;18.80;;;;;;;7.16;81.51;98853.67;224853;1272;138546;-76
2023/04/19 10:48:29;;;;;;;25.80;19.50;;;;;;;7.05;81.52;98862.94;224971;1275;138680;-77
2023/04/19 10:53:44;;;;;;;23.50;19.90;;;;;;;6.97;81.85;98867.99;224870;1259;138949;-76
2023/04/19 10:59:09;;;;;;;19.80;16.10;;;;;;;6.92;82.25;98874.13;224991;1265;139088;-77
2023/04/19 11:04:13;;;;;;;20.50;16.70;;;;;;;6.85;82.26;98874.30;225198;1273;138754;-77
2023/04/19 11:09:26;;;;;;;20.50;16.60;;;;;;;6.81;82.37;98873.40;225316;1275;138853;-76
2023/04/19 11:14:34;;;;;;;16.40;14.80;;;;;;;6.84;82.70;98871.31;225140;1275;25907;-78
2023/04/19 11:19:41;;;;;;;18.00;14.50;;;;;;;6.88;82.63;98868.63;224964;1272;138584;-77
2023/04/19 11:24:46;;;;;;;19.90;16.00;;;;;;;6.87;82.64;98873.29;225034;1274;138662;-78
2023/04/19 11:29:47;;;;;;;23.30;17.00;;;;;;;6.85;82.63;98877.84;224907;1272;139438;-77
2023/04/19 11:34:50;;;;;;;18.30;15.70;;;;;;;6.86;83.13;98878.84;225179;1259;138840;-77
2023/04/19 11:39:52;;;;;;;16.10;14.10;;;;;;;6.82;83.36;98876.08;225113;1260;138875;-76
2023/04/19 11:44:56;;;;;;;17.50;14.10;;;;;;;6.73;83.57;98876.15;225130;1275;22539;-78
2023/04/19 11:50:32;;;;;;;16.60;13.60;;;;;;;6.68;83.90;98868.30;225238;1269;22534;-77
2023/04/19 11:55:34;;;;;;;16.70;12.90;;;;;;;6.68;83.86;98864.00;224996;1260;138781;-78
2023/04/19 12:00:36;;;;;;;16.60;12.00;;;;;;;6.64;84.19;98867.77;224911;1276;138967;-77
2023/04/19 12:05:38;;;;;;;11.00;9.70;;;;;;;6.54;84.03;98883.42;224933;1274;138734;-77
2023/04/19 12:10:55;;;;;;;10.20;9.10;;;;;;;6.42;83.97;98889.95;225220;1265;139575;-79
2023/04/19 12:15:57;;;;;;;11.70;10.40;;;;;;;6.30;84.00;98897.58;225387;1256;138789;-81
2023/04/19 12:20:59;;;;;;;12.40;10.80;;;;;;;6.25;84.29;98898.34;224876;1265;138955;-83
2023/04/19 12:26:07;;;;;;;14.20;12.60;;;;;;;6.19;84.16;98897.77;225084;1267;22539;-81
2023/04/19 12:31:09;;;;;;;12.20;10.90;;;;;;;6.10;84.20;98896.38;225102;1259;138571;-81
2023/04/19 12:36:12;;;;;;;13.30;11.40;;;;;;;6.03;84.61;98898.48;224934;1262;138794;-79
2023/04/19 12:41:14;;;;;;;14.00;12.50;;;;;;;5.95;84.74;98897.55;224882;1275;138824;-80
2023/04/19 12:46:16;;;;;;;13.10;11.70;;;;;;;5.94;85.28;98893.77;225099;1266;139179;-79
2023/04/19 12:51:19;;;;;;;14.40;12.40;;;;;;;5.98;85.38;98892.31;225249;1278;137920;-79
2023/04/19 12:56:21;;;;;;;15.00;12.50;;;;;;;5.98;85.22;98889.23;225159;1265;22605;-83
2023/04/19 13:01:23;;;;;;;14.50;12.50;;;;;;;5.98;85.43;98888.77;224988;1279;138809;-80
2023/04/19 13:06:26;;;;;;;16.70;13.60;;;;;;;6.05;85.34;98889.70;225384;1275;138775;-82
2023/04/19 13:11:28;;;;;;;14.60;12.20;;;;;;;6.08;85.35;98893.09;225006;1278;138711;-86
2023/04/19 13:16:31;;;;;;;15.20;13.20;;;;;;;6.10;85.39;98885.73;225022;1256;139181;-83
2023/04/19 13:21:33;;;;;;;14.20;12.70;;;;;;;6.10;85.22;98883.58;225136;1268;138446;-82
2023/04/19 13:26:36;;;;;;;15.90;14.00;;;;;;;6.09;85.30;98879.64;225275;1276;22658;-82
2023/04/19 13:31:45;;;;;;;15.60;13.80;;;;;;;6.18;85.01;98876.85;225001;1274;138303;-82
2023/04/19 13:36:51;;;;;;;16.20;13.60;;;;;;;6.30;85.50;98878.73;225001;1262;139660;-79
2023/04/19 13:41:53;;;;;;;16.20;13.20;;;;;;;6.38;85.06;98884.27;225175;1260;139389;-78
2023/04/19 13:46:56;;;;;;;15.50;13.30;;;;;;;6.33;84.71;98886.94;225145;1272;139404;-81
2023/04/19 13:51:58;;;;;;;16.30;13.00;;;;;;;6.26;84.91;98895.39;225280;1275;138872;-85
2023/04/19 13:57:01;;;;;;;15.00;13.20;;;;;;;6.19;84.72;98892.16;225147;1275;138865;-83
2023/04/19 14:02:04;;;;;;;16.70;14.10;;;;;;;6.16;84.92;98889.29;224890;1275;22533;-80
2023/04/19 14:07:06;;;;;;;16.40;14.60;;;;;;;6.18;85.14;98886.45;224805;1263;138464;-82
2023/04/19 14:12:08;;;;;;;17.00;15.10;;;;;;;6.18;85.17;98884.38;225056;1268;138922;-81
2023/04/19 14:17:10;;;;;;;18.60;14.60;;;;;;;6.17;84.94;98882.08;225030;1270;22597;-79
2023/04/19 14:22:13;;;;;;;20.40;16.30;;;;;;;6.15;84.97;98880.46;225285;1259;22542;-82
2023/04/19 14:27:15;;;;;;;20.40;16.70;;;;;;;6.15;85.04;98874.20;225420;1269;22488;-82
2023/04/19 14:32:18;;;;;;;21.20;17.50;;;;;;;6.16;85.56;98875.84;225195;1279;22520;-80
2023/04/19 14:37:27;;;;;;;19.20;17.30;;;;;;;6.13;85.10;98877.70;225713;1277;22564;-81
2023/04/19 14:42:29;;;;;;;21.40;18.00;;;;;;;6.09;85.27;98878.66;225626;1276;22563;-80
2023/04/19 14:47:31;;;;;;;20.40;18.20;;;;;;;6.06;85.37;98881.42;225402;1279;22543;-81
2023/04/19 14:52:34;;;;;;;20.70;16.50;;;;;;;6.02;85.47;98887.79;225567;1278;22586;-81
2023/04/19 14:57:36;;;;;;;21.10;18.10;;;;;;;6.01;85.92;98884.30;225509;1278;22558;-80
2023/04/19 15:02:38;;;;;;;22.90;19.00;;;;;;;6.01;85.60;98878.01;225432;1278;22523;-81
2023/04/19 15:07:41;;;;;;;21.40;18.60;;;;;;;6.01;85.63;98878.95;225615;1277;22553;-81
2023/04/19 15:12:43;;;;;;;23.00;19.50;;;;;;;6.00;85.85;98885.08;225471;1279;22539;-82
2023/04/19 15:17:45;;;;;;;21.70;19.20;;;;;;;5.99;86.33;98891.56;225608;1279;22577;-80
2023/04/19 15:22:48;;;;;;;26.30;20.80;;;;;;;5.95;86.16;98889.11;225675;1277;22534;-80
2023/04/19 15:27:50;;;;;;;27.10;21.80;;;;;;;5.91;86.22;98891.64;225479;1279;22529;-82
2023/04/19 15:32:52;;;;;;;26.90;22.90;;;;;;;5.88;86.64;98889.31;225564;1278;22550;-83
2023/04/19 15:37:55;;;;;;;32.20;24.30;;;;;;;5.88;86.46;98893.38;225735;1272;22514;-81
2023/04/19 15:42:56;;;;;;;28.90;23.50;;;;;;;5.87;86.62;98896.55;225541;1278;22540;-82
2023/04/19 15:47:59;;;;;;;30.00;25.20;;;;;;;5.89;86.76;98906.05;225651;1276;25326;-80
2023/04/19 15:53:01;;;;;;;33.90;25.80;;;;;;;5.91;86.80;98909.67;225656;1277;25328;-81
2023/04/19 15:58:03;;;;;;;31.30;24.60;;;;;;;5.94;86.71;98915.80;225803;1272;22529;-81
2023/04/19 16:03:10;;;;;;;32.00;25.80;;;;;;;5.98;86.62;98920.70;225441;1279;22554;-83
2023/04/19 16:08:16;;;;;;;33.40;26.50;;;;;;;6.00;86.71;98923.27;225595;1278;22529;-83
2023/04/19 16:13:18;;;;;;;40.80;31.50;;;;;;;6.02;86.90;98927.97;225703;1279;22527;-82
2023/04/19 16:18:20;;;;;;;32.90;26.30;;;;;;;6.04;86.98;98927.13;225665;1273;22536;-82
2023/04/19 16:23:23;;;;;;;34.70;28.30;;;;;;;6.04;86.73;98931.27;225813;1275;22613;-81
2023/04/19 16:28:25;;;;;;;35.20;27.10;;;;;;;6.06;86.73;98936.19;225533;1278;23880;-82
2023/04/19 16:33:27;;;;;;;39.00;29.80;;;;;;;6.06;86.94;98939.83;225733;1277;22522;-82
2023/04/19 16:38:30;;;;;;;40.80;31.70;;;;;;;6.09;87.00;98943.90;225516;1278;23002;-81
2023/04/19 16:43:32;;;;;;;38.10;31.10;;;;;;;6.10;86.94;98935.38;225516;1275;25332;-83
2023/04/19 16:48:34;;;;;;;38.90;30.60;;;;;;;6.09;86.78;98938.07;225693;1279;22538;-81
2023/04/19 16:53:37;;;;;;;37.80;30.40;;;;;;;6.10;87.24;98937.84;225761;1278;22799;-82
2023/04/19 16:58:39;;;;;;;43.80;31.90;;;;;;;6.08;87.18;98942.77;225647;1279;22541;-82
2023/04/19 17:03:41;;;;;;;39.50;31.10;;;;;;;6.08;87.42;98931.71;225755;1279;22546;-80
2023/04/19 17:08:43;;;;;;;37.10;31.10;;;;;;;6.08;87.22;98925.61;225756;1275;22529;-80
2023/04/19 17:13:45;;;;;;;44.60;33.60;;;;;;;6.09;87.55;98929.91;225738;1278;22527;-80
2023/04/19 17:18:47;;;;;;;42.10;33.50;;;;;;;6.10;87.29;98937.40;225737;1276;25294;-82
2023/04/19 17:23:50;;;;;;;40.30;31.90;;;;;;;6.11;87.38;98939.45;225653;1278;22541;-81
2023/04/19 17:28:52;;;;;;;43.10;34.00;;;;;;;6.12;87.47;98939.03;225690;1256;22540;-81
2023/04/19 17:33:55;;;;;;;45.10;34.90;;;;;;;6.14;87.46;98945.96;225761;1275;22542;-83
2023/04/19 17:38:58;;;;;;;46.20;35.20;;;;;;;6.16;87.21;98949.40;225546;1279;22530;-81
2023/04/19 17:44:00;;;;;;;47.20;36.60;;;;;;;6.17;87.54;98948.29;225544;1279;22563;-82
2023/04/19 17:49:03;;;;;;;50.00;37.90;;;;;;;6.18;87.30;98952.71;225799;1272;22526;-81
2023/04/19 17:54:08;;;;;;;52.20;39.00;;;;;;;6.19;87.54;98956.53;225759;1278;22535;-82
2023/04/19 17:59:10;;;;;;;51.40;40.50;;;;;;;6.20;87.68;98965.33;225696;1275;22567;-82
2023/04/19 18:04:16;;;;;;;50.80;38.90;;;;;;;6.22;87.41;98972.38;225515;1279;22531;-82
2023/04/19 18:09:19;;;;;;;56.00;40.10;;;;;;;6.26;87.63;98978.52;225726;1279;22537;-82
2023/04/19 18:14:21;;;;;;;52.50;40.20;;;;;;;6.28;87.59;98983.91;225521;1279;22561;-81
2023/04/19 18:19:25;;;;;;;51.00;39.30;;;;;;;6.30;87.88;98988.95;225452;1278;22658;-80
2023/04/19 18:24:27;;;;;;;49.80;38.80;;;;;;;6.34;87.63;98996.39;225625;1278;22711;-82
2023/04/19 18:29:29;;;;;;;51.10;38.30;;;;;;;6.38;87.88;99001.40;225741;1275;22534;-81
2023/04/19 18:34:31;;;;;;;44.40;35.10;;;;;;;6.39;87.73;98998.14;225517;1279;22549;-81
2023/04/19 18:39:34;;;;;;;48.60;37.50;;;;;;;6.36;87.53;98998.41;225535;1279;22581;-82
2023/04/19 18:44:36;;;;;;;58.20;41.20;;;;;;;6.33;87.59;98997.30;225463;1279;22648;-81
2023/04/19 18:49:55;;;;;;;60.60;41.90;;;;;;;6.33;87.83;99005.38;225748;1278;22533;-81
2023/04/19 18:55:10;;;;;;;55.10;41.10;;;;;;;6.34;87.88;98997.41;225443;1279;22562;-84
2023/04/19 19:00:13;;;;;;;61.30;43.10;;;;;;;6.32;87.76;98994.83;225380;1262;22616;-80
2023/04/19 19:05:15;;;;;;;61.70;43.40;;;;;;;6.30;87.69;98995.55;225539;1279;22535;-80
2023/04/19 19:10:21;;;;;;;61.20;43.60;;;;;;;6.28;87.82;99001.53;225372;1279;22527;-83
2023/04/19 19:15:43;;;;;;;60.90;43.60;;;;;;;6.25;87.77;99002.55;225198;1279;22529;-80
2023/04/19 19:20:45;;;;;;;60.30;44.20;;;;;;;6.22;87.73;99003.96;225233;1278;22535;-82
2023/04/19 19:25:51;;;;;;;61.80;44.40;;;;;;;6.19;87.73;99012.47;225331;1257;22534;-83
2023/04/19 19:30:54;;;;;;;57.30;40.20;;;;;;;6.20;88.08;99014.32;225545;1275;25454;-82
2023/04/19 19:35:57;;;;;;;59.40;42.30;;;;;;;6.18;87.97;99017.45;225487;1279;22555;-82
2023/04/19 19:41:00;;;;;;;63.90;44.20;;;;;;;6.16;88.15;99018.71;225544;1278;22592;-81
2023/04/19 19:46:05;;;;;;;57.10;42.90;;;;;;;6.14;88.47;99016.80;225767;1276;22535;-82
2023/04/19 19:51:07;;;;;;;62.20;43.30;;;;;;;6.12;88.21;99017.50;225642;1262;22543;-81
2023/04/19 19:56:32;;;;;;;63.90;44.80;;;;;;;6.12;88.25;99020.88;225716;1278;22538;-81
2023/04/19 20:01:35;;;;;;;71.10;48.30;;;;;;;6.12;88.35;99015.27;225734;1278;22534;-80
2023/04/19 20:06:37;;;;;;;68.90;45.80;;;;;;;6.12;88.51;99012.21;225493;1278;22547;-80
2023/04/19 20:12:00;;;;;;;71.70;48.30;;;;;;;6.11;88.53;99009.40;225581;1278;22643;-81
2023/04/19 20:17:03;;;;;;;76.70;49.40;;;;;;;6.11;88.63;99009.55;225538;1279;22649;-81
2023/04/19 20:22:05;;;;;;;77.80;48.40;;;;;;;6.12;88.89;99007.33;225506;1278;22541;-81
2023/04/19 20:27:08;;;;;;;81.50;50.70;;;;;;;6.14;88.84;99008.57;225484;1271;22555;-81
2023/04/19 20:32:10;;;;;;;85.10;52.70;;;;;;;6.17;89.07;99009.17;225512;1279;25458;-81
2023/04/19 20:37:12;;;;;;;83.70;51.70;;;;;;;6.19;88.85;99009.48;225526;1278;22541;-82
2023/04/19 20:42:14;;;;;;;79.60;49.60;;;;;;;6.20;88.57;99006.21;225441;1279;22552;-81
2023/04/19 20:47:17;;;;;;;85.10;53.40;;;;;;;6.20;88.75;99009.34;225739;1276;22535;-82
2023/04/19 20:52:19;;;;;;;81.00;51.40;;;;;;;6.22;89.04;99007.21;225525;1279;22532;-80
2023/04/19 20:57:21;;;;;;;80.40;52.00;;;;;;;6.23;88.87;99006.21;225502;1278;23770;-80
2023/04/19 21:02:23;;;;;;;80.40;50.70;;;;;;;6.24;88.72;99002.31;225772;1279;22570;-80
2023/04/19 21:07:26;;;;;;;82.70;52.40;;;;;;;6.24;88.98;99007.53;225749;1276;23038;-81
2023/04/19 21:12:28;;;;;;;80.30;50.70;;;;;;;6.25;88.96;99006.00;225478;1278;22535;-80
2023/04/19 21:17:33;;;;;;;77.90;50.30;;;;;;;6.27;88.82;99000.80;225454;1279;22557;-81
2023/04/19 21:22:36;;;;;;;80.30;52.40;;;;;;;6.28;88.70;99003.10;225486;1257;22680;-82
2023/04/19 21:27:40;;;;;;;74.70;50.30;;;;;;;6.32;88.96;99004.83;225477;1278;22546;-81
2023/04/19 21:32:44;;;;;;;78.20;50.60;;;;;;;6.35;88.86;99004.38;225739;1279;22553;-80
2023/04/19 21:37:46;;;;;;;75.70;48.30;;;;;;;6.38;88.89;98999.86;225629;1279;22560;-80
2023/04/19 21:42:49;;;;;;;71.20;47.50;;;;;;;6.40;89.00;98998.95;225739;1279;22541;-79
2023/04/19 21:47:51;;;;;;;72.70;49.60;;;;;;;6.42;88.81;98995.92;225457;1279;22983;-80
2023/04/19 21:52:55;;;;;;;74.00;50.00;;;;;;;6.45;89.00;98997.86;225455;1279;22634;-80
2023/04/19 21:57:58;;;;;;;71.50;48.60;;;;;;;6.48;88.99;99003.77;225514;1279;24340;-80
2023/04/19 22:03:00;;;;;;;71.00;48.70;;;;;;;6.50;89.18;99007.30;225547;1279;22561;-81
2023/04/19 22:08:04;;;;;;;69.50;47.90;;;;;;;6.52;88.86;99013.61;225425;1279;22566;-80
2023/04/19 22:13:06;;;;;;;75.60;47.00;;;;;;;6.55;89.07;99016.11;225442;1279;22527;-80
2023/04/19 22:18:08;;;;;;;73.50;46.80;;;;;;;6.57;88.65;99020.45;225502;1279;22567;-81
2023/04/19 22:23:11;;;;;;;70.20;47.30;;;;;;;6.58;88.66;99022.40;225295;1279;238512;-81
2023/04/19 22:28:13;;;;;;;68.50;45.60;;;;;;;6.57;89.00;99023.23;225477;1278;24249;-81
2023/04/19 22:33:15;;;;;;;65.60;45.70;;;;;;;6.57;88.73;99028.38;225447;1279;23826;-81
2023/04/19 22:38:17;;;;;;;67.70;45.00;;;;;;;6.59;88.68;99028.92;225563;1279;22560;-80
2023/04/19 22:43:20;;;;;;;67.80;45.40;;;;;;;6.62;88.86;99030.10;225537;1279;23131;-81
2023/04/19 22:48:22;;;;;;;63.20;44.10;;;;;;;6.63;88.73;99028.70;225626;1279;22534;-80
2023/04/19 22:53:24;;;;;;;67.70;43.50;;;;;;;6.65;88.49;99027.36;225730;1279;22579;-79
2023/04/19 22:58:26;;;;;;;64.70;43.50;;;;;;;6.67;88.90;99027.83;225552;1278;22613;-79
2023/04/19 23:03:29;;;;;;;62.70;44.00;;;;;;;6.68;88.78;99027.30;225732;1279;22580;-80
2023/04/19 23:08:32;;;;;;;62.30;42.80;;;;;;;6.69;88.57;99023.85;225534;1279;22552;-80
2023/04/19 23:13:46;;;;;;;62.70;42.60;;;;;;;6.71;88.61;99021.63;225717;1279;22544;-81
2023/04/19 23:18:48;;;;;;;65.60;42.80;;;;;;;6.71;88.91;99019.10;225533;1279;22642;-79